MUGM/NBW METAR and TAF weather

Enter ICAO airport designator
Station Type Date Time Source
MUGM METAR 2018/12/10 07:56 UTC NOAA

MUGM 100756Z 34008KT 9999 FEW032 23/21 A3000 MRK SLP158 T02280211


Station Type Date Time Source
MUGM Decoded METAR 2018/12/10 07:56 UTC NOAA

GUANTANAMO BAY, CUBA NAVAL, CU, Cuba (MUGM) 19-55N 075-12W 23M
Dec 10, 2018 - 02:56 AM EST / 2018.12.10 0756 UTC
Wind: from the NNW (340 degrees) at 9 MPH (8 KT):0
Visibility: greater than 7 mile(s):0
Sky conditions: mostly clear
Temperature: 73 F (23 C)
Dew Point: 69 F (21 C)
Relative Humidity: 88%
Pressure (altimeter): 30 in. Hg (1015 hPa)
ob: MUGM 100756Z 34008KT 9999 FEW032 23/21 A3000 MRK SLP158 T02280211
cycle: 8

Station Type Date Time Source
MUGM TAF 2018/12/10 07:06 UTC NOAA

TAF MUGM 1007/1107 34008KT 9999 FEW035 FEW280 QNH2996INS
BECMG 1016/1018 20012KT QNH3000INS
BECMG 1105/1107 35008KT QNH2995INS T23/1009Z T29/1018Z FN00182


Example: see airport list